sensor_id;sensor_type;location;lat;lon;timestamp;pressure;altitude;pressure_sealevel;temperature;humidity
17525;BME280;40431;52.198;9.902;2023-02-18T00:01:51;101018.13;;;6.98;88.10
17525;BME280;40431;52.198;9.902;2023-02-18T00:04:18;101017.25;;;6.98;87.49
17525;BME280;40431;52.198;9.902;2023-02-18T00:06:44;101021.59;;;7.02;86.81
17525;BME280;40431;52.198;9.902;2023-02-18T00:09:11;101017.00;;;7.04;87.01
17525;BME280;40431;52.198;9.902;2023-02-18T00:11:37;101012.47;;;7.05;87.83
17525;BME280;40431;52.198;9.902;2023-02-18T00:14:07;101016.94;;;7.06;88.01
17525;BME280;40431;52.198;9.902;2023-02-18T00:16:33;101008.94;;;7.04;87.82
17525;BME280;40431;52.198;9.902;2023-02-18T00:19:03;101013.38;;;7.05;87.87
17525;BME280;40431;52.198;9.902;2023-02-18T00:21:32;101012.47;;;7.05;88.18
17525;BME280;40431;52.198;9.902;2023-02-18T00:23:59;101018.78;;;7.05;88.05
17525;BME280;40431;52.198;9.902;2023-02-18T00:26:26;101008.94;;;7.04;88.34
17525;BME280;40431;52.198;9.902;2023-02-18T00:28:52;101009.06;;;7.01;88.70
17525;BME280;40431;52.198;9.902;2023-02-18T00:31:22;101018.06;;;7.00;88.69
17525;BME280;40431;52.198;9.902;2023-02-18T00:33:48;101009.97;;;7.00;88.79
17525;BME280;40431;52.198;9.902;2023-02-18T00:36:16;101004.72;;;6.97;89.14
17525;BME280;40431;52.198;9.902;2023-02-18T00:38:44;101017.25;;;6.98;89.01
17525;BME280;40431;52.198;9.902;2023-02-18T00:41:11;101014.53;;;6.98;89.00
17525;BME280;40431;52.198;9.902;2023-02-18T00:43:37;101019.00;;;6.99;88.87
17525;BME280;40431;52.198;9.902;2023-02-18T00:46:04;101013.88;;;6.93;89.06
17525;BME280;40431;52.198;9.902;2023-02-18T00:48:32;101022.63;;;6.98;89.33
17525;BME280;40431;52.198;9.902;2023-02-18T00:50:59;101017.25;;;6.98;89.06
17525;BME280;40431;52.198;9.902;2023-02-18T00:53:25;101011.75;;;7.01;88.65
17525;BME280;40431;52.198;9.902;2023-02-18T00:55:52;101011.63;;;7.04;88.69
17525;BME280;40431;52.198;9.902;2023-02-18T00:58:18;101020.78;;;7.00;89.50
17525;BME280;40431;52.198;9.902;2023-02-18T01:00:45;101020.91;;;6.97;89.21
17525;BME280;40431;52.198;9.902;2023-02-18T01:03:11;101024.41;;;6.99;89.79
17525;BME280;40431;52.198;9.902;2023-02-18T01:05:40;101021.97;;;6.93;90.51
17525;BME280;40431;52.198;9.902;2023-02-18T01:08:08;101024.75;;;6.90;90.89
17525;BME280;40431;52.198;9.902;2023-02-18T01:10:36;101016.84;;;6.85;90.96
17525;BME280;40431;52.198;9.902;2023-02-18T01:13:05;101015.72;;;6.91;91.01
17525;BME280;40431;52.198;9.902;2023-02-18T01:15:31;101017.59;;;6.89;91.02
17525;BME280;40431;52.198;9.902;2023-02-18T01:17:58;101022.06;;;6.90;91.30
17525;BME280;40431;52.198;9.902;2023-02-18T01:20:24;101023.75;;;6.92;91.29
17525;BME280;40431;52.198;9.902;2023-02-18T01:22:52;101019.19;;;6.94;91.31
17525;BME280;40431;52.198;9.902;2023-02-18T01:25:19;101022.88;;;6.92;91.58
17525;BME280;40431;52.198;9.902;2023-02-18T01:27:45;101033.66;;;6.92;92.29
17525;BME280;40431;52.198;9.902;2023-02-18T01:30:15;101030.13;;;6.90;92.92
17525;BME280;40431;52.198;9.902;2023-02-18T01:32:42;101022.06;;;6.90;92.89
17525;BME280;40431;52.198;9.902;2023-02-18T01:35:10;101015.59;;;6.94;92.95
17525;BME280;40431;52.198;9.902;2023-02-18T01:37:37;101018.19;;;6.97;93.40
17525;BME280;40431;52.198;9.902;2023-02-18T01:40:08;101031.69;;;6.97;93.58
17525;BME280;40431;52.198;9.902;2023-02-18T01:42:35;101029.09;;;6.94;93.16
17525;BME280;40431;52.198;9.902;2023-02-18T01:45:35;101024.59;;;6.94;93.90
17525;BME280;40431;52.198;9.902;2023-02-18T01:48:09;101007.50;;;6.94;94.00
17525;BME280;40431;52.198;9.902;2023-02-18T01:50:40;101009.97;;;7.00;94.28
17525;BME280;40431;52.198;9.902;2023-02-18T01:53:09;101011.69;;;7.02;94.96
17525;BME280;40431;52.198;9.902;2023-02-18T01:55:37;101013.38;;;7.05;95.07
17525;BME280;40431;52.198;9.902;2023-02-18T01:58:04;101006.94;;;7.09;95.79
17525;BME280;40431;52.198;9.902;2023-02-18T02:00:31;101004.41;;;7.05;96.22
17525;BME280;40431;52.198;9.902;2023-02-18T02:02:57;101004.38;;;7.06;96.51
17525;BME280;40431;52.198;9.902;2023-02-18T02:05:29;101008.78;;;7.07;96.40
17525;BME280;40431;52.198;9.902;2023-02-18T02:07:56;101000.69;;;7.07;96.67
17525;BME280;40431;52.198;9.902;2023-02-18T02:10:25;100996.97;;;7.11;97.18
17525;BME280;40431;52.198;9.902;2023-02-18T02:13:02;101003.03;;;7.16;97.42
17525;BME280;40431;52.198;9.902;2023-02-18T02:15:37;100991.31;;;7.17;98.13
17525;BME280;40431;52.198;9.902;2023-02-18T02:18:20;100987.81;;;7.15;99.42
17525;BME280;40431;52.198;9.902;2023-02-18T02:21:17;100979.75;;;7.14;100.00
17525;BME280;40431;52.198;9.902;2023-02-18T02:24:08;100974.38;;;7.14;100.00
17525;BME280;40431;52.198;9.902;2023-02-18T02:26:58;100968.34;;;7.07;100.00
17525;BME280;40431;52.198;9.902;2023-02-18T02:33:02;100971.88;;;7.09;100.00
17525;BME280;40431;52.198;9.902;2023-02-18T02:35:40;100977.25;;;7.09;100.00
17525;BME280;40431;52.198;9.902;2023-02-18T02:38:17;100977.13;;;7.12;100.00
17525;BME280;40431;52.198;9.902;2023-02-18T02:40:47;100977.25;;;7.09;100.00
17525;BME280;40431;52.198;9.902;2023-02-18T02:43:20;100969.19;;;7.09;100.00
17525;BME280;40431;52.198;9.902;2023-02-18T02:45:55;100972.81;;;7.08;100.00
17525;BME280;40431;52.198;9.902;2023-02-18T02:48:30;100961.09;;;7.09;100.00
17525;BME280;40431;52.198;9.902;2023-02-18T02:51:04;100960.03;;;7.13;100.00
17525;BME280;40431;52.198;9.902;2023-02-18T02:53:34;100976.91;;;7.18;100.00
17525;BME280;40431;52.198;9.902;2023-02-18T02:56:01;100968.75;;;7.20;100.00
17525;BME280;40431;52.198;9.902;2023-02-18T02:58:27;100963.34;;;7.20;100.00
17525;BME280;40431;52.198;9.902;2023-02-18T03:01:16;100958.94;;;7.17;100.00
17525;BME280;40431;52.198;9.902;2023-02-18T03:06:55;100953.50;;;7.19;100.00
17525;BME280;40431;52.198;9.902;2023-02-18T03:09:37;100953.50;;;7.19;100.00
17525;BME280;40431;52.198;9.902;2023-02-18T03:12:17;100951.56;;;7.23;100.00
17525;BME280;40431;52.198;9.902;2023-02-18T03:14:49;100948.03;;;7.21;100.00
17525;BME280;40431;52.198;9.902;2023-02-18T03:17:23;100942.69;;;7.19;100.00
17525;BME280;40431;52.198;9.902;2023-02-18T03:19:55;100933.59;;;7.22;100.00
17525;BME280;40431;52.198;9.902;2023-02-18T03:22:28;100938.91;;;7.25;100.00
17525;BME280;40431;52.198;9.902;2023-02-18T03:24:56;100944.91;;;7.31;100.00
17525;BME280;40431;52.198;9.902;2023-02-18T03:27:26;100938.75;;;7.28;100.00
17525;BME280;40431;52.198;9.902;2023-02-18T03:29:58;100932.75;;;7.21;100.00
17525;BME280;40431;52.198;9.902;2023-02-18T03:32:26;100929.75;;;7.29;100.00
17525;BME280;40431;52.198;9.902;2023-02-18T03:34:56;100920.69;;;7.30;100.00
17525;BME280;40431;52.198;9.902;2023-02-18T03:37:27;100908.84;;;7.34;100.00
17525;BME280;40431;52.198;9.902;2023-02-18T03:39:58;100902.56;;;7.33;100.00
17525;BME280;40431;52.198;9.902;2023-02-18T03:42:26;100894.47;;;7.33;100.00
17525;BME280;40431;52.198;9.902;2023-02-18T03:44:53;100886.25;;;7.37;100.00
17525;BME280;40431;52.198;9.902;2023-02-18T03:47:19;100881.59;;;7.40;100.00
17525;BME280;40431;52.198;9.902;2023-02-18T03:49:46;100890.69;;;7.38;100.00
17525;BME280;40431;52.198;9.902;2023-02-18T03:52:12;100885.44;;;7.34;100.00
17525;BME280;40431;52.198;9.902;2023-02-18T03:54:40;100890.63;;;7.39;100.00
17525;BME280;40431;52.198;9.902;2023-02-18T03:57:06;100898.47;;;7.45;100.00
17525;BME280;40431;52.198;9.902;2023-02-18T03:59:33;100894.81;;;7.46;100.00
17525;BME280;40431;52.198;9.902;2023-02-18T04:01:59;100890.44;;;7.44;100.00
17525;BME280;40431;52.198;9.902;2023-02-18T04:04:27;100885.19;;;7.41;100.00
17525;BME280;40431;52.198;9.902;2023-02-18T04:06:53;100873.38;;;7.43;100.00
17525;BME280;40431;52.198;9.902;2023-02-18T04:09:19;100875.13;;;7.44;100.00
17525;BME280;40431;52.198;9.902;2023-02-18T04:11:47;100875.81;;;7.49;100.00
17525;BME280;40431;52.198;9.902;2023-02-18T04:14:14;100873.16;;;7.48;100.00
17525;BME280;40431;52.198;9.902;2023-02-18T04:16:40;100873.25;;;7.46;100.00
17525;BME280;40431;52.198;9.902;2023-02-18T04:19:06;100869.59;;;7.47;100.00
17525;BME280;40431;52.198;9.902;2023-02-18T04:21:33;100866.09;;;7.45;100.00
17525;BME280;40431;52.198;9.902;2023-02-18T04:24:00;100865.06;;;7.48;100.00
17525;BME280;40431;52.198;9.902;2023-02-18T04:26:26;100867.69;;;7.49;100.00
17525;BME280;40431;52.198;9.902;2023-02-18T04:28:54;100872.09;;;7.52;100.00
17525;BME280;40431;52.198;9.902;2023-02-18T04:31:20;100872.22;;;7.49;100.00
17525;BME280;40431;52.198;9.902;2023-02-18T04:33:47;100865.94;;;7.48;100.00
17525;BME280;40431;52.198;9.902;2023-02-18T04:36:14;100861.44;;;7.49;100.00
17525;BME280;40431;52.198;9.902;2023-02-18T04:38:40;100867.69;;;7.49;100.00
17525;BME280;40431;52.198;9.902;2023-02-18T04:41:07;100864.25;;;7.46;100.00
17525;BME280;40431;52.198;9.902;2023-02-18T04:43:33;100865.94;;;7.48;100.00
17525;BME280;40431;52.198;9.902;2023-02-18T04:46:01;100860.84;;;7.42;100.00
17525;BME280;40431;52.198;9.902;2023-02-18T04:48:27;100848.13;;;7.44;100.00
17525;BME280;40431;52.198;9.902;2023-02-18T04:50:54;100834.53;;;7.47;100.00
17525;BME280;40431;52.198;9.902;2023-02-18T04:53:21;100839.94;;;7.47;100.00
17525;BME280;40431;52.198;9.902;2023-02-18T04:55:48;100839.09;;;7.45;100.00
17525;BME280;40431;52.198;9.902;2023-02-18T04:58:15;100836.16;;;7.51;100.00
17525;BME280;40431;52.198;9.902;2023-02-18T05:00:41;100836.16;;;7.51;100.00
17525;BME280;40431;52.198;9.902;2023-02-18T05:03:09;100825.34;;;7.51;100.00
17525;BME280;40431;52.198;9.902;2023-02-18T05:05:35;100827.91;;;7.55;100.00
17525;BME280;40431;52.198;9.902;2023-02-18T05:08:02;100820.63;;;7.57;100.00
17525;BME280;40431;52.198;9.902;2023-02-18T05:10:29;100828.91;;;7.52;100.00
17525;BME280;40431;52.198;9.902;2023-02-18T05:12:55;100814.50;;;7.53;100.00
17525;BME280;40431;52.198;9.902;2023-02-18T05:15:21;100813.47;;;7.56;100.00
17525;BME280;40431;52.198;9.902;2023-02-18T05:17:48;100813.34;;;7.59;100.00
17525;BME280;40431;52.198;9.902;2023-02-18T05:20:16;100803.47;;;7.58;100.00
17525;BME280;40431;52.198;9.902;2023-02-18T05:22:42;100805.31;;;7.57;100.00
17525;BME280;40431;52.198;9.902;2023-02-18T05:25:08;100798.91;;;7.60;100.00
17525;BME280;40431;52.198;9.902;2023-02-18T05:27:35;100797.13;;;7.59;100.00
17525;BME280;40431;52.198;9.902;2023-02-18T05:30:01;100796.06;;;7.63;100.00
17525;BME280;40431;52.198;9.902;2023-02-18T05:32:27;100788.19;;;7.58;100.00
17525;BME280;40431;52.198;9.902;2023-02-18T05:34:54;100787.25;;;7.59;100.00
17525;BME280;40431;52.198;9.902;2023-02-18T05:37:21;100775.56;;;7.59;100.00
17525;BME280;40431;52.198;9.902;2023-02-18T05:39:48;100778.19;;;7.60;100.00
17525;BME280;40431;52.198;9.902;2023-02-18T05:42:14;100775.44;;;7.62;100.00
17525;BME280;40431;52.198;9.902;2023-02-18T05:44:40;100773.38;;;7.67;100.00
17525;BME280;40431;52.198;9.902;2023-02-18T05:47:09;100776.16;;;7.65;100.00
17525;BME280;40431;52.198;9.902;2023-02-18T05:49:36;100765.34;;;7.65;100.00
17525;BME280;40431;52.198;9.902;2023-02-18T05:52:04;100767.97;;;7.67;100.00
17525;BME280;40431;52.198;9.902;2023-02-18T05:54:32;100760.69;;;7.69;100.00
17525;BME280;40431;52.198;9.902;2023-02-18T05:56:58;100751.66;;;7.70;100.00
17525;BME280;40431;52.198;9.902;2023-02-18T05:59:25;100748.53;;;7.79;100.00
17525;BME280;40431;52.198;9.902;2023-02-18T06:01:52;100745.09;;;7.76;100.00
17525;BME280;40431;52.198;9.902;2023-02-18T06:04:18;100738.84;;;7.75;100.00
17525;BME280;40431;52.198;9.902;2023-02-18T06:06:45;100734.44;;;7.73;100.00
17525;BME280;40431;52.198;9.902;2023-02-18T06:09:11;100725.34;;;7.75;100.00
17525;BME280;40431;52.198;9.902;2023-02-18T06:11:39;100725.19;;;7.78;100.00
17525;BME280;40431;52.198;9.902;2023-02-18T06:14:05;100725.03;;;7.81;100.00
17525;BME280;40431;52.198;9.902;2023-02-18T06:16:31;100725.34;;;7.75;100.00
17525;BME280;40431;52.198;9.902;2023-02-18T06:18:58;100723.44;;;7.77;100.00
17525;BME280;40431;52.198;9.902;2023-02-18T06:21:24;100722.25;;;7.83;100.00
17525;BME280;40431;52.198;9.902;2023-02-18T06:23:51;100723.81;;;7.89;100.00
17525;BME280;40431;52.198;9.902;2023-02-18T06:26:17;100714.91;;;7.86;100.00
17525;BME280;40431;52.198;9.902;2023-02-18T06:28:45;100709.50;;;7.86;100.00
17525;BME280;40431;52.198;9.902;2023-02-18T06:31:11;100713.13;;;7.85;100.00
17525;BME280;40431;52.198;9.902;2023-02-18T06:33:38;100696.50;;;7.76;100.00
17525;BME280;40431;52.198;9.902;2023-02-18T06:36:06;100693.56;;;7.80;100.00
17525;BME280;40431;52.198;9.902;2023-02-18T06:38:35;100693.56;;;7.80;100.00
17525;BME280;40431;52.198;9.902;2023-02-18T06:41:02;100687.13;;;7.84;100.00
17525;BME280;40431;52.198;9.902;2023-02-18T06:43:29;100688.06;;;7.83;100.00
17525;BME280;40431;52.198;9.902;2023-02-18T06:45:57;100668.91;;;7.88;100.00
17525;BME280;40431;52.198;9.902;2023-02-18T06:48:24;100670.69;;;7.89;100.00
17525;BME280;40431;52.198;9.902;2023-02-18T06:50:50;100667.13;;;7.89;100.00
17525;BME280;40431;52.198;9.902;2023-02-18T06:53:16;100660.69;;;7.91;100.00
17525;BME280;40431;52.198;9.902;2023-02-18T06:55:43;100641.91;;;7.88;100.00
17525;BME280;40431;52.198;9.902;2023-02-18T06:58:10;100642.66;;;7.92;100.00
17525;BME280;40431;52.198;9.902;2023-02-18T07:00:37;100644.41;;;7.93;100.00
17525;BME280;40431;52.198;9.902;2023-02-18T07:03:06;100634.47;;;7.93;100.00
17525;BME280;40431;52.198;9.902;2023-02-18T07:05:32;100629.81;;;7.97;100.00
17525;BME280;40431;52.198;9.902;2023-02-18T07:07:59;100621.63;;;7.98;100.00
17525;BME280;40431;52.198;9.902;2023-02-18T07:10:26;100624.25;;;8.00;100.00
17525;BME280;40431;52.198;9.902;2023-02-18T07:12:52;100614.25;;;8.02;100.00
17525;BME280;40431;52.198;9.902;2023-02-18T07:15:19;100605.22;;;8.03;100.00
17525;BME280;40431;52.198;9.902;2023-02-18T07:17:48;100603.31;;;8.05;100.00
17525;BME280;40431;52.198;9.902;2023-02-18T07:20:16;100600.44;;;8.08;100.00
17525;BME280;40431;52.198;9.902;2023-02-18T07:22:43;100591.38;;;8.09;100.00
17525;BME280;40431;52.198;9.902;2023-02-18T07:25:09;100585.22;;;8.25;100.00
17525;BME280;40431;52.198;9.902;2023-02-18T07:27:35;100579.34;;;8.34;100.00
17525;BME280;40431;52.198;9.902;2023-02-18T07:30:02;100570.78;;;8.43;100.00
17525;BME280;40431;52.198;9.902;2023-02-18T07:32:29;100573.81;;;8.55;100.00
17525;BME280;40431;52.198;9.902;2023-02-18T07:34:55;100549.00;;;8.64;100.00
17525;BME280;40431;52.198;9.902;2023-02-18T07:37:23;100547.72;;;8.71;100.00
17525;BME280;40431;52.198;9.902;2023-02-18T07:39:49;100545.66;;;8.76;100.00
17525;BME280;40431;52.198;9.902;2023-02-18T07:42:16;100544.53;;;8.80;100.00
17525;BME280;40431;52.198;9.902;2023-02-18T07:44:42;100542.28;;;8.89;100.00
17525;BME280;40431;52.198;9.902;2023-02-18T07:47:12;100552.91;;;8.92;100.00
17525;BME280;40431;52.198;9.902;2023-02-18T07:49:39;100554.69;;;8.93;100.00
17525;BME280;40431;52.198;9.902;2023-02-18T07:52:05;100548.47;;;8.91;100.00
17525;BME280;40431;52.198;9.902;2023-02-18T07:54:33;100539.84;;;9.00;100.00
17525;BME280;40431;52.198;9.902;2023-02-18T07:56:59;100538.66;;;9.06;100.00
17525;BME280;40431;52.198;9.902;2023-02-18T07:59:26;100535.88;;;9.07;100.00
17525;BME280;40431;52.198;9.902;2023-02-18T08:01:52;100526.63;;;9.11;100.00
17525;BME280;40431;52.198;9.902;2023-02-18T08:04:18;100542.66;;;9.14;100.00
17525;BME280;40431;52.198;9.902;2023-02-18T08:06:47;100531.06;;;9.12;100.00
17525;BME280;40431;52.198;9.902;2023-02-18T08:09:14;100529.75;;;9.19;100.00
17525;BME280;40431;52.198;9.902;2023-02-18T08:11:42;100518.94;;;9.19;100.00
17525;BME280;40431;52.198;9.902;2023-02-18T08:14:08;100516.94;;;9.23;100.00
17525;BME280;40431;52.198;9.902;2023-02-18T08:16:35;100512.25;;;9.27;100.00
17525;BME280;40431;52.198;9.902;2023-02-18T08:19:02;100521.03;;;9.30;100.00
17525;BME280;40431;52.198;9.902;2023-02-18T08:21:29;100514.59;;;9.33;100.00
17525;BME280;40431;52.198;9.902;2023-02-18T08:23:56;100514.78;;;9.30;100.00
17525;BME280;40431;52.198;9.902;2023-02-18T08:26:23;100512.59;;;9.36;100.00
17525;BME280;40431;52.198;9.902;2023-02-18T08:28:51;100504.38;;;9.38;100.00
17525;BME280;40431;52.198;9.902;2023-02-18T08:31:20;100504.38;;;9.38;100.00
17525;BME280;40431;52.198;9.902;2023-02-18T08:33:47;100508.75;;;9.41;100.00
17525;BME280;40431;52.198;9.902;2023-02-18T08:36:14;100508.66;;;9.42;100.00
17525;BME280;40431;52.198;9.902;2023-02-18T08:38:40;100504.19;;;9.41;100.00
17525;BME280;40431;52.198;9.902;2023-02-18T08:41:08;100512.31;;;9.41;100.00
17525;BME280;40431;52.198;9.902;2023-02-18T08:43:35;100487.91;;;9.43;100.00
17525;BME280;40431;52.198;9.902;2023-02-18T08:46:03;100498.72;;;9.43;100.00
17525;BME280;40431;52.198;9.902;2023-02-18T08:48:29;100489.56;;;9.45;100.00
17525;BME280;40431;52.198;9.902;2023-02-18T08:50:56;100486.84;;;9.45;100.00
17525;BME280;40431;52.198;9.902;2023-02-18T08:53:23;100489.97;;;9.53;100.00
17525;BME280;40431;52.198;9.902;2023-02-18T08:55:49;100483.50;;;9.56;100.00
17525;BME280;40431;52.198;9.902;2023-02-18T08:58:15;100480.34;;;9.64;100.00
17525;BME280;40431;52.198;9.902;2023-02-18T09:00:43;100478.63;;;9.63;100.00
17525;BME280;40431;52.198;9.902;2023-02-18T09:03:12;100484.44;;;9.71;100.00
17525;BME280;40431;52.198;9.902;2023-02-18T09:05:39;100476.13;;;9.74;100.00
17525;BME280;40431;52.198;9.902;2023-02-18T09:08:06;100475.78;;;9.80;100.00
17525;BME280;40431;52.198;9.902;2023-02-18T09:10:33;100474.03;;;9.79;100.00
17525;BME280;40431;52.198;9.902;2023-02-18T09:12:59;100472.13;;;9.81;100.00
17525;BME280;40431;52.198;9.902;2023-02-18T09:15:26;100466.22;;;9.89;100.00
17525;BME280;40431;52.198;9.902;2023-02-18T09:17:52;100469.81;;;9.90;100.00
17525;BME280;40431;52.198;9.902;2023-02-18T09:20:20;100460.53;;;9.94;100.00
17525;BME280;40431;52.198;9.902;2023-02-18T09:22:46;100451.25;;;9.98;100.00
17525;BME280;40431;52.198;9.902;2023-02-18T09:25:12;100452.22;;;9.97;100.00
17525;BME280;40431;52.198;9.902;2023-02-18T09:27:39;100447.78;;;9.96;100.00
17525;BME280;40431;52.198;9.902;2023-02-18T09:30:06;100443.94;;;10.00;100.00
17525;BME280;40431;52.198;9.902;2023-02-18T09:32:32;100431.94;;;10.04;100.00
17525;BME280;40431;52.198;9.902;2023-02-18T09:34:59;100439.19;;;10.03;100.00
17525;BME280;40431;52.198;9.902;2023-02-18T09:37:28;100442.47;;;10.09;100.00
17525;BME280;40431;52.198;9.902;2023-02-18T09:39:54;100446.66;;;10.14;100.00
17525;BME280;40431;52.198;9.902;2023-02-18T09:42:23;100440.16;;;10.17;100.00
17525;BME280;40431;52.198;9.902;2023-02-18T09:44:55;100439.31;;;10.16;100.00
17525;BME280;40431;52.198;9.902;2023-02-18T09:47:28;100436.41;;;10.19;100.00
17525;BME280;40431;52.198;9.902;2023-02-18T09:49:59;100439.13;;;10.19;100.00
17525;BME280;40431;52.198;9.902;2023-02-18T09:52:32;100446.47;;;10.17;100.00
17525;BME280;40431;52.198;9.902;2023-02-18T09:55:00;100445.31;;;10.22;100.00
17525;BME280;40431;52.198;9.902;2023-02-18T09:57:39;100426.56;;;10.18;100.00
17525;BME280;40431;52.198;9.902;2023-02-18T10:00:13;100432.63;;;10.22;100.00
17525;BME280;40431;52.198;9.902;2023-02-18T10:02:42;100430.03;;;10.20;100.00
17525;BME280;40431;52.198;9.902;2023-02-18T10:05:14;100422.84;;;10.19;100.00
17525;BME280;40431;52.198;9.902;2023-02-18T10:07:43;100422.97;;;10.18;100.00
17525;BME280;40431;52.198;9.902;2023-02-18T10:10:18;100414.94;;;10.16;100.00
17525;BME280;40431;52.198;9.902;2023-02-18T10:12:47;100407.66;;;10.17;100.00
17525;BME280;40431;52.198;9.902;2023-02-18T10:15:20;100418.31;;;10.20;100.00
17525;BME280;40431;52.198;9.902;2023-02-18T10:17:48;100413.97;;;10.17;100.00
17525;BME280;40431;52.198;9.902;2023-02-18T10:20:16;100414.13;;;10.14;100.00
17525;BME280;40431;52.198;9.902;2023-02-18T10:22:46;100404.94;;;10.17;100.00
17525;BME280;40431;52.198;9.902;2023-02-18T10:25:17;100401.97;;;10.22;100.00
17525;BME280;40431;52.198;9.902;2023-02-18T10:27:45;100412.44;;;10.28;100.00
17525;BME280;40431;52.198;9.902;2023-02-18T10:30:20;100410.16;;;10.36;100.00
17525;BME280;40431;52.198;9.902;2023-02-18T10:32:51;100396.59;;;10.36;100.00
17525;BME280;40431;52.198;9.902;2023-02-18T10:35:24;100414.75;;;10.34;100.00
17525;BME280;40431;52.198;9.902;2023-02-18T10:38:00;100436.44;;;10.34;100.00
17525;BME280;40431;52.198;9.902;2023-02-18T10:40:35;100414.69;;;10.35;100.00
17525;BME280;40431;52.198;9.902;2023-02-18T10:43:12;100404.81;;;10.34;100.00
17525;BME280;40431;52.198;9.902;2023-02-18T10:45:47;100408.47;;;10.33;100.00
17525;BME280;40431;52.198;9.902;2023-02-18T10:48:29;100411.28;;;10.32;100.00
17525;BME280;40431;52.198;9.902;2023-02-18T10:50:59;100398.88;;;10.28;100.00
17525;BME280;40431;52.198;9.902;2023-02-18T10:53:32;100406.44;;;10.23;100.00
17525;BME280;40431;52.198;9.902;2023-02-18T10:56:00;100409.81;;;10.12;100.00
17525;BME280;40431;52.198;9.902;2023-02-18T10:58:31;100397.38;;;10.08;100.00
17525;BME280;40431;52.198;9.902;2023-02-18T11:00:59;100400.19;;;10.06;100.00
17525;BME280;40431;52.198;9.902;2023-02-18T11:03:40;100402.16;;;10.04;100.00
17525;BME280;40431;52.198;9.902;2023-02-18T11:06:15;100390.41;;;10.03;100.00
17525;BME280;40431;52.198;9.902;2023-02-18T11:08:46;100380.63;;;10.01;100.00
17525;BME280;40431;52.198;9.902;2023-02-18T11:11:16;100388.78;;;10.01;100.00
17525;BME280;40431;52.198;9.902;2023-02-18T11:13:51;100381.44;;;10.03;100.00
17525;BME280;40431;52.198;9.902;2023-02-18T11:16:21;100394.88;;;10.05;100.00
17525;BME280;40431;52.198;9.902;2023-02-18T11:18:48;100394.19;;;10.01;100.00
17525;BME280;40431;52.198;9.902;2023-02-18T11:21:21;100404.97;;;10.02;100.00
17525;BME280;40431;52.198;9.902;2023-02-18T11:23:54;100391.47;;;10.01;100.00
17525;BME280;40431;52.198;9.902;2023-02-18T11:26:26;100388.28;;;9.94;100.00
17525;BME280;40431;52.198;9.902;2023-02-18T11:28:59;100388.22;;;9.96;100.00
17525;BME280;40431;52.198;9.902;2023-02-18T11:31:38;100389.81;;;9.98;100.00
17525;BME280;40431;52.198;9.902;2023-02-18T11:34:13;100384.50;;;9.97;100.00
17525;BME280;40431;52.198;9.902;2023-02-18T11:36:41;100389.16;;;9.95;100.00
17525;BME280;40431;52.198;9.902;2023-02-18T11:39:17;100409.34;;;9.89;100.00
17525;BME280;40431;52.198;9.902;2023-02-18T11:41:46;100398.50;;;9.89;100.00
17525;BME280;40431;52.198;9.902;2023-02-18T11:44:18;100397.84;;;9.85;100.00
17525;BME280;40431;52.198;9.902;2023-02-18T11:46:55;100387.38;;;9.79;100.00
17525;BME280;40431;52.198;9.902;2023-02-18T11:49:23;100398.22;;;9.79;100.00
17525;BME280;40431;52.198;9.902;2023-02-18T11:51:50;100393.75;;;9.78;100.00
17525;BME280;40431;52.198;9.902;2023-02-18T11:54:24;100396.47;;;9.78;100.00
17525;BME280;40431;52.198;9.902;2023-02-18T11:56:56;100391.25;;;9.75;100.00
17525;BME280;40431;52.198;9.902;2023-02-18T11:59:23;100392.03;;;9.77;100.00
17525;BME280;40431;52.198;9.902;2023-02-18T12:01:54;100394.75;;;9.77;100.00
17525;BME280;40431;52.198;9.902;2023-02-18T12:04:26;100403.97;;;9.73;100.00
17525;BME280;40431;52.198;9.902;2023-02-18T12:07:00;100386.19;;;9.69;100.00
17525;BME280;40431;52.198;9.902;2023-02-18T12:09:36;100388.13;;;9.67;100.00
17525;BME280;40431;52.198;9.902;2023-02-18T12:12:06;100380.09;;;9.65;100.00
17525;BME280;40431;52.198;9.902;2023-02-18T12:14:37;100398.00;;;9.68;100.00
17525;BME280;40431;52.198;9.902;2023-02-18T12:17:34;100384.47;;;9.68;100.00
17525;BME280;40431;52.198;9.902;2023-02-18T12:20:41;100369.94;;;9.69;100.00
17525;BME280;40431;52.198;9.902;2023-02-18T12:23:13;100372.38;;;9.74;100.00
17525;BME280;40431;52.198;9.902;2023-02-18T12:25:54;100380.69;;;9.71;100.00
17525;BME280;40431;52.198;9.902;2023-02-18T12:28:33;100384.16;;;9.73;100.00
17525;BME280;40431;52.198;9.902;2023-02-18T12:31:17;100382.41;;;9.72;100.00
17525;BME280;40431;52.198;9.902;2023-02-18T12:33:56;100388.28;;;9.64;100.00
17525;BME280;40431;52.198;9.902;2023-02-18T12:36:30;100388.28;;;9.64;100.00
17525;BME280;40431;52.198;9.902;2023-02-18T12:39:09;100382.00;;;9.63;100.00
17525;BME280;40431;52.198;9.902;2023-02-18T12:41:52;100400.19;;;9.61;100.00
17525;BME280;40431;52.198;9.902;2023-02-18T12:44:33;100401.25;;;9.59;100.00
17525;BME280;40431;52.198;9.902;2023-02-18T12:50:24;100415.03;;;9.54;100.00
17525;BME280;40431;52.198;9.902;2023-02-18T12:53:06;100421.34;;;9.55;100.00
17525;BME280;40431;52.198;9.902;2023-02-18T12:55:49;100427.44;;;9.58;100.00
17525;BME280;40431;52.198;9.902;2023-02-18T12:58:32;100419.50;;;9.55;100.00
17525;BME280;40431;52.198;9.902;2023-02-18T13:01:22;100421.16;;;9.58;100.00
17525;BME280;40431;52.198;9.902;2023-02-18T13:04:04;100409.63;;;9.54;100.00
17525;BME280;40431;52.198;9.902;2023-02-18T13:06:52;100419.59;;;9.53;100.00
17525;BME280;40431;52.198;9.902;2023-02-18T13:09:34;100415.56;;;9.61;100.00
17525;BME280;40431;52.198;9.902;2023-02-18T13:12:10;100402.13;;;9.59;100.00
17525;BME280;40431;52.198;9.902;2023-02-18T13:14:45;100412.84;;;9.61;100.00